Main page
METAR-TAF:

METAR-TAF

Airports :

Gaines County Airport

Seminole, Texas, United States

latitude: 32-40-31N, longitude: 102-39-09W, elevation: 3313 ft

Current weather observation

The report was made 27 minutes ago, at 16:35 UTC
Wind 15 mph from the South with gusts up to 22 mph
Temperature 84°F
Humidity 52%
Pressure 30.03 in. Hg
Visibility: 10 miles
Clear sky

METAR: KGNC 151635Z AUTO 17013G19KT 10SM CLR 29/18 A3003 RMK AO2 T02890182

Time: 12:02 (17:02 UTC)


TAF: missing

Weather observations and forecasts of more than 4000 airports (METAR and TAF reports).

The available stations are represented by yellow and red dots on the map.

Hover mouse over dot to see the name of the station.

Then click to see weather observations and forecasts.

To change the map : click on the green buttons with a black cross to zoom in, on the green button with a dash to zoom out, or on the green arrows for adjacent maps.


METAR-TAF: